createdAt,value
2018-05-11T00:00:14.539Z,98.80
2018-05-11T00:02:41.998Z,98.50
2018-05-11T00:05:09.465Z,98.40
2018-05-11T00:07:36.929Z,98.40
2018-05-11T00:10:04.418Z,98.30
2018-05-11T00:12:32.647Z,98.10
2018-05-11T00:15:00.112Z,98.10
2018-05-11T00:17:27.575Z,98.00
2018-05-11T00:19:55.049Z,98.00
2018-05-11T00:22:22.525Z,98.20
2018-05-11T00:24:50.007Z,98.40
2018-05-11T00:27:17.469Z,98.80
2018-05-11T00:29:44.913Z,98.60
2018-05-11T00:32:12.383Z,98.50
2018-05-11T00:34:39.871Z,98.40
2018-05-11T00:37:08.101Z,98.60
2018-05-11T00:39:35.561Z,98.60
2018-05-11T00:42:03.021Z,98.80
2018-05-11T00:44:30.495Z,98.90
2018-05-11T00:46:57.979Z,99.20
2018-05-11T00:49:25.473Z,99.30
2018-05-11T00:51:52.913Z,99.30
2018-05-11T00:54:20.366Z,99.40
2018-05-11T00:56:47.839Z,99.50
2018-05-11T00:59:15.312Z,99.50
2018-05-11T01:01:43.550Z,99.50
2018-05-11T01:04:11.032Z,99.40
2018-05-11T01:06:38.498Z,99.40
2018-05-11T01:09:05.970Z,99.20
2018-05-11T01:11:33.456Z,99.10
2018-05-11T01:14:01.678Z,99.10
2018-05-11T01:16:29.151Z,99.10
2018-05-11T01:18:56.612Z,99.10
2018-05-11T01:21:24.073Z,99.10
2018-05-11T01:23:51.538Z,99.20
2018-05-11T01:26:18.998Z,99.00
2018-05-11T01:28:46.471Z,99.10
2018-05-11T01:31:13.946Z,99.20
2018-05-11T01:33:41.408Z,99.40
2018-05-11T01:36:08.887Z,99.40
2018-05-11T01:38:36.353Z,99.30
2018-05-11T01:41:03.825Z,99.10
2018-05-11T01:43:31.284Z,99.10
2018-05-11T01:45:58.752Z,99.00
2018-05-11T01:48:26.208Z,99.00
2018-05-11T01:50:53.664Z,99.10
2018-05-11T01:53:21.172Z,99.20
2018-05-11T01:55:48.634Z,99.30
2018-05-11T01:58:16.091Z,99.40
2018-05-11T02:00:44.314Z,99.20
2018-05-11T02:03:11.778Z,99.20
2018-05-11T02:05:39.254Z,99.10
2018-05-11T02:08:06.728Z,99.00
2018-05-11T02:10:34.201Z,99.10
2018-05-11T02:13:01.667Z,99.30
2018-05-11T02:15:29.128Z,99.40
2018-05-11T02:17:56.605Z,99.50
2018-05-11T02:20:24.846Z,99.70
2018-05-11T02:22:52.325Z,99.70
2018-05-11T02:25:19.798Z,99.80
2018-05-11T02:27:47.256Z,99.90
2018-05-11T02:30:14.750Z,99.90
2018-05-11T02:32:42.970Z,99.90
2018-05-11T02:35:10.437Z,99.90
2018-05-11T02:37:37.920Z,99.90
2018-05-11T02:40:05.381Z,99.90
2018-05-11T02:42:32.850Z,99.90
2018-05-11T02:45:00.322Z,99.90
2018-05-11T02:47:27.792Z,99.90
2018-05-11T02:49:55.254Z,99.90
2018-05-11T02:52:22.713Z,99.90
2018-05-11T02:54:50.208Z,99.90
2018-05-11T02:57:17.698Z,99.90
2018-05-11T02:59:45.146Z,99.90
2018-05-11T03:02:12.630Z,99.90
2018-05-11T03:04:40.094Z,99.90
2018-05-11T03:07:07.579Z,99.90
2018-05-11T03:09:35.046Z,99.90
2018-05-11T03:12:02.508Z,99.90
2018-05-11T03:14:29.986Z,99.90
2018-05-11T03:16:57.463Z,99.90
2018-05-11T03:19:24.944Z,99.90
2018-05-11T03:21:52.412Z,99.90
2018-05-11T03:24:19.878Z,99.90
2018-05-11T03:26:47.336Z,99.90
2018-05-11T03:29:14.808Z,99.90
2018-05-11T03:31:42.288Z,99.90
2018-05-11T03:34:09.753Z,99.90
2018-05-11T03:36:37.206Z,99.90
2018-05-11T03:39:04.678Z,99.90
2018-05-11T03:41:32.146Z,99.90
2018-05-11T03:43:59.623Z,99.90
2018-05-11T03:46:27.083Z,99.90
2018-05-11T03:48:54.537Z,99.90
2018-05-11T03:51:21.997Z,99.90
2018-05-11T03:53:49.458Z,99.90
2018-05-11T03:56:16.936Z,99.90
2018-05-11T03:58:44.403Z,99.90
2018-05-11T04:01:23.767Z,99.90
2018-05-11T04:04:03.177Z,99.90
2018-05-11T04:06:42.524Z,99.90
2018-05-11T04:09:09.986Z,99.90
2018-05-11T04:11:37.444Z,99.90
2018-05-11T04:14:04.904Z,99.90
2018-05-11T04:16:32.367Z,99.90
2018-05-11T04:18:59.856Z,99.90
2018-05-11T04:21:27.308Z,99.90
2018-05-11T04:23:54.768Z,99.90
2018-05-11T04:26:22.225Z,99.90
2018-05-11T04:28:49.695Z,99.90
2018-05-11T04:31:17.193Z,99.90
2018-05-11T04:33:45.431Z,99.90
2018-05-11T04:36:12.895Z,99.90
2018-05-11T04:38:40.359Z,99.90
2018-05-11T04:41:07.827Z,99.90
2018-05-11T04:43:35.303Z,99.90
2018-05-11T04:46:02.771Z,99.90
2018-05-11T04:48:30.243Z,99.90
2018-05-11T04:50:57.693Z,99.90
2018-05-11T04:53:25.161Z,99.90
2018-05-11T04:55:52.678Z,99.90
2018-05-11T04:58:20.145Z,99.90
2018-05-11T05:00:47.623Z,99.90
2018-05-11T05:03:15.100Z,99.90
2018-05-11T05:05:42.567Z,99.90
2018-05-11T05:08:10.817Z,99.90
2018-05-11T05:10:38.273Z,99.90
2018-05-11T05:13:05.751Z,99.90
2018-05-11T05:15:33.235Z,99.90
2018-05-11T05:18:00.695Z,99.90
2018-05-11T05:20:28.179Z,99.90
2018-05-11T05:22:55.643Z,99.90
2018-05-11T05:25:23.109Z,99.90
2018-05-11T05:27:50.575Z,99.90
2018-05-11T05:30:18.053Z,99.90
2018-05-11T05:32:46.293Z,99.90
2018-05-11T05:35:13.767Z,99.90
2018-05-11T05:37:41.999Z,99.90
2018-05-11T05:40:09.471Z,99.90
2018-05-11T05:42:36.932Z,99.90
2018-05-11T05:45:04.421Z,99.90
2018-05-11T05:47:31.901Z,99.90
2018-05-11T05:49:59.371Z,99.90
2018-05-11T05:52:26.845Z,99.90
2018-05-11T05:54:54.303Z,99.90
2018-05-11T05:57:21.790Z,99.90
2018-05-11T05:59:50.038Z,99.90
2018-05-11T06:02:17.503Z,99.90
2018-05-11T06:04:44.977Z,99.90
2018-05-11T06:07:12.435Z,99.90
2018-05-11T06:09:39.919Z,99.90
2018-05-11T06:12:07.393Z,99.90
2018-05-11T06:14:35.633Z,99.90
2018-05-11T06:17:03.093Z,99.90
2018-05-11T06:19:30.571Z,99.90
2018-05-11T06:21:58.073Z,99.90
2018-05-11T06:24:25.549Z,99.90
2018-05-11T06:26:53.021Z,99.90
2018-05-11T06:29:20.497Z,99.90
2018-05-11T06:31:47.973Z,99.90
2018-05-11T06:34:16.235Z,99.90
2018-05-11T06:36:43.701Z,99.80
2018-05-11T06:39:11.173Z,99.90
2018-05-11T06:41:38.631Z,99.40
2018-05-11T06:44:06.108Z,98.90
2018-05-11T06:46:33.603Z,98.80
2018-05-11T06:49:01.075Z,98.50
2018-05-11T06:51:29.311Z,97.70
2018-05-11T06:53:56.779Z,97.70
2018-05-11T06:56:24.245Z,97.30
2018-05-11T06:58:51.725Z,97.30
2018-05-11T07:01:19.204Z,96.80
2018-05-11T07:03:46.663Z,96.90
2018-05-11T07:06:14.130Z,96.80
2018-05-11T07:08:41.596Z,96.70
2018-05-11T07:11:09.085Z,96.80
2018-05-11T07:13:36.549Z,97.00
2018-05-11T07:16:04.028Z,96.90
2018-05-11T07:18:31.506Z,96.30
2018-05-11T07:20:58.973Z,96.20
2018-05-11T07:23:26.455Z,95.90
2018-05-11T07:25:53.935Z,96.10
2018-05-11T07:28:21.392Z,95.80
2018-05-11T07:30:48.862Z,95.80
2018-05-11T07:33:16.352Z,95.80
2018-05-11T07:35:44.605Z,95.60
2018-05-11T07:38:12.084Z,95.60
2018-05-11T07:40:40.341Z,94.90
2018-05-11T07:43:07.840Z,94.90
2018-05-11T07:45:35.299Z,94.70
2018-05-11T07:48:03.560Z,94.90
2018-05-11T07:50:31.031Z,94.90
2018-05-11T07:52:58.493Z,94.70
2018-05-11T07:55:25.958Z,94.50
2018-05-11T07:57:53.430Z,94.10
2018-05-11T08:00:21.700Z,94.70
2018-05-11T08:02:49.167Z,94.70
2018-05-11T08:05:16.653Z,93.50
2018-05-11T08:07:44.891Z,93.20
2018-05-11T08:10:12.371Z,93.20
2018-05-11T08:12:39.857Z,93.50
2018-05-11T08:15:08.108Z,93.50
2018-05-11T08:17:35.592Z,93.50
2018-05-11T08:20:03.836Z,93.90
2018-05-11T08:22:31.316Z,93.50
2018-05-11T08:24:58.798Z,93.60
2018-05-11T08:27:26.271Z,93.30
2018-05-11T08:29:54.507Z,92.30
2018-05-11T08:32:21.976Z,92.30
2018-05-11T08:34:50.221Z,93.00
2018-05-11T08:37:17.710Z,92.80
2018-05-11T08:39:45.183Z,93.00
2018-05-11T08:42:12.653Z,92.30
2018-05-11T08:44:40.128Z,92.20
2018-05-11T08:47:07.592Z,92.00
2018-05-11T08:49:35.091Z,92.50
2018-05-11T08:52:03.331Z,91.60
2018-05-11T08:54:30.824Z,91.60
2018-05-11T08:56:58.293Z,91.40
2018-05-11T08:59:26.534Z,90.20
2018-05-11T09:01:54.034Z,90.10
2018-05-11T09:04:22.267Z,90.30
2018-05-11T09:06:49.825Z,90.30
2018-05-11T09:09:17.248Z,90.50
2018-05-11T09:11:45.476Z,91.00
2018-05-11T09:14:13.737Z,91.20
2018-05-11T09:16:41.201Z,91.20
2018-05-11T09:19:08.668Z,91.80
2018-05-11T09:21:36.150Z,90.60
2018-05-11T09:24:03.613Z,88.90
2018-05-11T09:26:31.139Z,90.30
2018-05-11T09:28:59.372Z,89.60
2018-05-11T09:31:26.843Z,89.50
2018-05-11T09:33:54.314Z,89.70
2018-05-11T09:36:21.778Z,88.50
2018-05-11T09:38:49.268Z,86.90
2018-05-11T09:41:17.494Z,85.40
2018-05-11T09:43:44.969Z,85.50
2018-05-11T09:46:12.437Z,86.30
2018-05-11T09:48:41.415Z,87.20
2018-05-11T09:51:08.909Z,86.40
2018-05-11T09:53:36.377Z,84.40
2018-05-11T09:56:03.847Z,85.30
2018-05-11T09:58:31.306Z,85.90
2018-05-11T10:00:58.777Z,85.60
2018-05-11T10:03:26.267Z,84.30
2018-05-11T10:05:53.735Z,84.20
2018-05-11T10:08:21.209Z,84.80
2018-05-11T10:10:48.693Z,84.90
2018-05-11T10:13:16.173Z,84.70
2018-05-11T10:15:43.663Z,85.90
2018-05-11T10:18:11.116Z,86.30
2018-05-11T10:20:38.583Z,85.70
2018-05-11T10:23:07.032Z,83.30
2018-05-11T10:25:34.488Z,83.90
2018-05-11T10:28:01.968Z,85.20
2018-05-11T10:30:29.435Z,86.50
2018-05-11T10:32:56.962Z,87.70
2018-05-11T10:35:24.432Z,85.80
2018-05-11T10:37:51.896Z,84.50
2018-05-11T10:40:19.390Z,84.40
2018-05-11T10:42:46.872Z,84.10
2018-05-11T10:45:14.330Z,82.70
2018-05-11T10:47:41.794Z,82.90
2018-05-11T10:50:09.266Z,82.10
2018-05-11T10:52:36.791Z,80.30
2018-05-11T10:55:04.262Z,79.30
2018-05-11T10:57:31.732Z,80.80
2018-05-11T10:59:59.201Z,80.40
2018-05-11T11:02:26.689Z,79.00
2018-05-11T11:04:54.153Z,78.70
2018-05-11T11:07:21.617Z,78.10
2018-05-11T11:09:49.081Z,77.30
2018-05-11T11:12:16.538Z,75.30
2018-05-11T11:14:44.019Z,74.50
2018-05-11T11:17:12.276Z,74.40
2018-05-11T11:19:39.748Z,74.40
2018-05-11T11:22:07.218Z,75.20
2018-05-11T11:24:34.684Z,72.30
2018-05-11T11:27:02.151Z,70.40
2018-05-11T11:29:29.647Z,72.30
2018-05-11T11:31:57.117Z,72.10
2018-05-11T11:34:24.620Z,71.60
2018-05-11T11:36:52.065Z,71.30
2018-05-11T11:39:19.535Z,70.30
2018-05-11T11:41:47.044Z,70.50
2018-05-11T11:44:14.482Z,70.70
2018-05-11T11:46:41.956Z,69.50
2018-05-11T11:49:09.419Z,70.30
2018-05-11T11:51:36.887Z,68.10
2018-05-11T11:54:04.356Z,66.30
2018-05-11T11:56:32.597Z,63.60
2018-05-11T11:59:00.064Z,63.70
2018-05-11T12:01:27.532Z,64.80
2018-05-11T12:03:55.005Z,67.20
2018-05-11T12:06:22.485Z,69.80
2018-05-11T12:08:49.947Z,69.10
2018-05-11T12:11:17.406Z,65.40
2018-05-11T12:13:44.867Z,63.20
2018-05-11T12:16:12.339Z,61.80
2018-05-11T12:18:39.833Z,62.60
2018-05-11T12:21:07.315Z,63.00
2018-05-11T12:23:34.797Z,61.20
2018-05-11T12:26:02.265Z,62.60
2018-05-11T12:28:29.732Z,62.90
2018-05-11T12:30:57.207Z,60.50
2018-05-11T12:33:24.689Z,60.80
2018-05-11T12:35:52.147Z,63.10
2018-05-11T12:38:19.622Z,62.20
2018-05-11T12:40:47.836Z,61.20
2018-05-11T12:43:15.343Z,61.10
2018-05-11T12:45:42.804Z,63.10
2018-05-11T12:48:10.275Z,64.60
2018-05-11T12:50:37.722Z,64.00
2018-05-11T12:53:05.197Z,62.60
2018-05-11T12:55:32.668Z,61.00
2018-05-11T12:58:00.133Z,59.90
2018-05-11T13:00:27.614Z,58.60
2018-05-11T13:02:55.838Z,57.10
2018-05-11T13:05:23.346Z,57.20
2018-05-11T13:07:50.823Z,60.20
2018-05-11T13:10:19.065Z,62.10
2018-05-11T13:12:47.372Z,61.40
2018-05-11T13:15:14.784Z,61.40
2018-05-11T13:17:42.244Z,62.30
2018-05-11T13:20:09.720Z,64.00
2018-05-11T13:22:37.187Z,59.90
2018-05-11T13:25:04.649Z,62.80
2018-05-11T13:27:32.117Z,63.90
2018-05-11T13:29:59.581Z,64.10
2018-05-11T13:32:27.069Z,64.20
2018-05-11T13:34:54.537Z,64.90
2018-05-11T13:37:21.999Z,64.80
2018-05-11T13:39:49.463Z,65.80
2018-05-11T13:42:16.929Z,65.70
2018-05-11T13:44:44.418Z,66.10
2018-05-11T13:47:12.662Z,64.40
2018-05-11T13:49:40.129Z,64.30
2018-05-11T13:52:07.620Z,64.80
2018-05-11T13:54:35.858Z,66.20
2018-05-11T13:57:03.323Z,66.20
2018-05-11T13:59:30.791Z,66.80
2018-05-11T14:01:58.261Z,67.80
2018-05-11T14:04:25.731Z,67.10
2018-05-11T14:06:53.213Z,68.00
2018-05-11T14:09:20.689Z,69.60
2018-05-11T14:11:48.924Z,66.90
2018-05-11T14:14:16.395Z,66.80
2018-05-11T14:16:43.857Z,66.60
2018-05-11T14:19:11.315Z,64.60
2018-05-11T14:21:38.805Z,64.60
2018-05-11T14:24:06.266Z,66.60
2018-05-11T14:26:33.754Z,67.30
2018-05-11T14:29:01.993Z,67.50
2018-05-11T14:31:29.460Z,67.50
2018-05-11T14:33:56.949Z,67.70
2018-05-11T14:36:24.415Z,68.40
2018-05-11T14:38:52.647Z,66.20
2018-05-11T14:41:20.115Z,66.20
2018-05-11T14:43:47.599Z,66.20
2018-05-11T14:46:15.079Z,67.50
2018-05-11T14:48:42.554Z,68.60
2018-05-11T14:51:10.820Z,68.20
2018-05-11T14:53:38.278Z,68.20
2018-05-11T14:56:05.737Z,68.70
2018-05-11T14:58:33.220Z,69.30
2018-05-11T15:01:00.700Z,69.50
2018-05-11T15:03:28.941Z,66.70
2018-05-11T15:05:56.408Z,66.70
2018-05-11T15:08:23.877Z,66.90
2018-05-11T15:10:51.358Z,67.40
2018-05-11T15:13:19.602Z,69.00
2018-05-11T15:15:47.060Z,68.80
2018-05-11T15:18:14.528Z,67.90
2018-05-11T15:20:41.996Z,66.70
2018-05-11T15:23:09.491Z,67.50
2018-05-11T15:25:36.965Z,67.60
2018-05-11T15:28:05.203Z,64.00
2018-05-11T15:30:32.694Z,63.80
2018-05-11T15:33:00.161Z,64.60
2018-05-11T15:35:27.696Z,64.80
2018-05-11T15:37:55.158Z,65.50
2018-05-11T15:40:22.720Z,67.80
2018-05-11T15:42:50.155Z,68.50
2018-05-11T15:45:17.615Z,69.00
2018-05-11T15:47:45.126Z,69.20
2018-05-11T15:50:12.600Z,69.90
2018-05-11T15:52:40.071Z,69.00
2018-05-11T15:55:07.536Z,67.70
2018-05-11T15:57:35.001Z,67.60
2018-05-11T16:00:02.478Z,67.10
2018-05-11T16:02:30.697Z,65.00
2018-05-11T16:04:58.159Z,65.00
2018-05-11T16:07:25.620Z,64.40
2018-05-11T16:09:53.085Z,63.30
2018-05-11T16:12:20.563Z,61.70
2018-05-11T16:14:48.028Z,61.80
2018-05-11T16:17:15.489Z,60.70
2018-05-11T16:19:42.969Z,60.10
2018-05-11T16:22:10.437Z,60.10
2018-05-11T16:24:37.932Z,59.30
2018-05-11T16:27:06.149Z,58.80
2018-05-11T16:29:33.619Z,58.80
2018-05-11T16:32:01.088Z,60.10
2018-05-11T16:34:28.563Z,61.10
2018-05-11T16:36:56.060Z,61.90
2018-05-11T16:39:23.525Z,61.90
2018-05-11T16:41:51.749Z,63.50
2018-05-11T16:44:19.213Z,63.00
2018-05-11T16:46:46.678Z,62.00
2018-05-11T16:49:14.163Z,61.80
2018-05-11T16:51:41.636Z,61.80
2018-05-11T16:54:09.109Z,61.70
2018-05-11T16:56:36.571Z,61.20
2018-05-11T16:59:04.041Z,60.70
2018-05-11T17:01:32.312Z,62.80
2018-05-11T17:03:59.775Z,62.70
2018-05-11T17:06:27.239Z,63.10
2018-05-11T17:08:54.711Z,62.60
2018-05-11T17:11:22.168Z,60.20
2018-05-11T17:13:49.657Z,59.10
2018-05-11T17:16:17.956Z,57.40
2018-05-11T17:18:46.132Z,55.30
2018-05-11T17:21:13.605Z,55.30
2018-05-11T17:23:41.069Z,55.60
2018-05-11T17:26:08.569Z,55.30
2018-05-11T17:28:36.035Z,55.30
2018-05-11T17:31:03.533Z,54.60
2018-05-11T17:33:31.792Z,53.40
2018-05-11T17:35:59.251Z,53.30
2018-05-11T17:38:26.731Z,54.20
2018-05-11T17:40:54.198Z,53.90
2018-05-11T17:43:21.657Z,54.60
2018-05-11T17:45:49.120Z,55.20
2018-05-11T17:48:16.595Z,55.60
2018-05-11T17:50:44.838Z,58.40
2018-05-11T17:53:12.307Z,57.70
2018-05-11T17:55:39.772Z,59.00
2018-05-11T17:58:07.245Z,60.40
2018-05-11T18:00:34.704Z,62.00
2018-05-11T18:03:02.189Z,63.50
2018-05-11T18:05:29.654Z,65.20
2018-05-11T18:07:57.133Z,66.40
2018-05-11T18:10:25.366Z,68.80
2018-05-11T18:12:52.841Z,68.60
2018-05-11T18:15:20.344Z,69.80
2018-05-11T18:17:47.816Z,71.00
2018-05-11T18:20:15.390Z,71.80
2018-05-11T18:22:42.856Z,73.20
2018-05-11T18:25:10.328Z,74.60
2018-05-11T18:27:37.838Z,76.10
2018-05-11T18:30:05.312Z,78.20
2018-05-11T18:32:32.793Z,79.00
2018-05-11T18:35:01.060Z,81.50
2018-05-11T18:37:28.552Z,81.40
2018-05-11T18:39:56.038Z,82.20
2018-05-11T18:42:23.508Z,82.90
2018-05-11T18:44:50.983Z,83.60
2018-05-11T18:47:18.454Z,84.70
2018-05-11T18:49:45.928Z,87.10
2018-05-11T18:52:13.429Z,89.20
2018-05-11T18:54:41.194Z,90.00
2018-05-11T18:57:08.367Z,90.40
2018-05-11T18:59:35.837Z,90.50
2018-05-11T19:02:03.304Z,90.80
2018-05-11T19:04:30.788Z,90.50
2018-05-11T19:06:58.264Z,91.00
2018-05-11T19:09:25.723Z,91.10
2018-05-11T19:11:53.210Z,91.30
2018-05-11T19:14:20.678Z,91.80
2018-05-11T19:16:48.964Z,92.30
2018-05-11T19:19:17.198Z,92.50
2018-05-11T19:21:44.654Z,92.50
2018-05-11T19:24:12.120Z,92.60
2018-05-11T19:26:39.578Z,92.80
2018-05-11T19:29:07.074Z,93.20
2018-05-11T19:31:34.545Z,93.40
2018-05-11T19:34:02.017Z,93.60
2018-05-11T19:36:29.501Z,93.70
2018-05-11T19:38:57.733Z,94.10
2018-05-11T19:41:25.233Z,94.40
2018-05-11T19:43:52.697Z,94.20
2018-05-11T19:46:20.168Z,94.40
2018-05-11T19:48:48.396Z,94.70
2018-05-11T19:51:15.871Z,94.70
2018-05-11T19:53:43.393Z,94.90
2018-05-11T19:56:10.855Z,95.20
2018-05-11T19:58:38.339Z,95.30
2018-05-11T20:01:05.796Z,95.40
2018-05-11T20:03:33.289Z,95.40
2018-05-11T20:06:00.789Z,95.60
2018-05-11T20:08:29.041Z,95.80
2018-05-11T20:10:56.584Z,95.70
2018-05-11T20:13:23.986Z,95.70
2018-05-11T20:15:51.479Z,95.90
2018-05-11T20:18:19.005Z,95.90
2018-05-11T20:20:46.453Z,95.90
2018-05-11T20:23:13.943Z,96.00
2018-05-11T20:25:41.407Z,96.10
2018-05-11T20:28:08.894Z,96.20
2018-05-11T20:30:37.151Z,96.30
2018-05-11T20:33:04.640Z,96.30
2018-05-11T20:35:32.879Z,96.60
2018-05-11T20:38:00.410Z,96.60
2018-05-11T20:40:27.885Z,96.60
2018-05-11T20:42:55.397Z,96.70
2018-05-11T20:45:22.867Z,96.80
2018-05-11T20:47:50.336Z,96.80
2018-05-11T20:50:18.571Z,97.00
2018-05-11T20:52:46.031Z,96.90
2018-05-11T20:55:13.517Z,97.10
2018-05-11T20:57:41.069Z,97.20
2018-05-11T21:00:08.506Z,97.20
2018-05-11T21:02:35.988Z,97.30
2018-05-11T21:05:03.464Z,97.70
2018-05-11T21:07:30.962Z,97.50
2018-05-11T21:09:59.196Z,97.60
2018-05-11T21:12:26.679Z,97.50
2018-05-11T21:14:54.139Z,97.80
2018-05-11T21:17:21.616Z,97.80
2018-05-11T21:19:49.115Z,97.80
2018-05-11T21:22:17.355Z,97.90
2018-05-11T21:24:44.841Z,98.10
2018-05-11T21:27:13.089Z,98.10
2018-05-11T21:29:40.565Z,98.10
2018-05-11T21:32:08.050Z,98.20
2018-05-11T21:34:35.511Z,98.30
2018-05-11T21:37:03.831Z,98.40
2018-05-11T21:39:31.307Z,98.50
2018-05-11T21:41:58.768Z,98.60
2018-05-11T21:44:26.258Z,99.10
2018-05-11T21:46:53.743Z,98.70
2018-05-11T21:49:21.521Z,98.90
2018-05-11T21:51:49.788Z,98.90
2018-05-11T21:54:17.275Z,98.90
2018-05-11T21:56:45.538Z,99.10
2018-05-11T21:59:13.800Z,99.20
2018-05-11T22:01:42.017Z,99.30
2018-05-11T22:04:10.254Z,99.40
2018-05-11T22:06:37.717Z,99.40
2018-05-11T22:09:05.213Z,99.50
2018-05-11T22:11:32.687Z,99.60
2018-05-11T22:14:00.912Z,99.60
2018-05-11T22:16:28.382Z,99.60
2018-05-11T22:18:55.863Z,99.70
2018-05-11T22:21:23.351Z,99.70
2018-05-11T22:23:50.821Z,99.80
2018-05-11T22:26:18.278Z,99.90
2018-05-11T22:28:46.521Z,99.90
2018-05-11T22:31:14.004Z,99.90
2018-05-11T22:33:41.481Z,99.80
2018-05-11T22:36:08.953Z,99.90
2018-05-11T22:38:37.192Z,99.90
2018-05-11T22:41:04.667Z,99.90
2018-05-11T22:43:32.132Z,99.90
2018-05-11T22:45:59.616Z,99.90
2018-05-11T22:48:27.086Z,99.90
2018-05-11T22:50:54.559Z,99.90
2018-05-11T22:53:22.795Z,99.90
2018-05-11T22:55:50.264Z,99.90
2018-05-11T22:58:17.766Z,99.90
2018-05-11T23:00:46.004Z,99.90
2018-05-11T23:03:13.476Z,99.90
2018-05-11T23:05:40.952Z,99.90
2018-05-11T23:08:08.419Z,99.90
2018-05-11T23:10:35.904Z,99.90
2018-05-11T23:13:04.132Z,99.90
2018-05-11T23:15:31.599Z,99.90
2018-05-11T23:17:59.068Z,99.90
2018-05-11T23:20:26.538Z,99.90
2018-05-11T23:22:54.029Z,99.90
2018-05-11T23:25:21.493Z,99.90
2018-05-11T23:27:49.004Z,99.90
2018-05-11T23:30:16.435Z,99.90
2018-05-11T23:32:44.664Z,99.90
2018-05-11T23:35:12.264Z,99.90
2018-05-11T23:37:40.419Z,99.90
2018-05-11T23:40:07.874Z,99.90
2018-05-11T23:42:35.347Z,99.90
2018-05-11T23:45:02.809Z,99.90
2018-05-11T23:47:30.299Z,99.90
2018-05-11T23:49:57.769Z,99.90
2018-05-11T23:52:25.237Z,99.90
2018-05-11T23:54:53.483Z,99.90
2018-05-11T23:57:20.951Z,99.90
2018-05-11T23:59:48.429Z,99.90
